Pagrindinis puslapis
METAR-TAF:

METAR-TAF

Oro uostai :

Džohor Baru, Malaizija

platuma: 01-38N, ilguma: 103-40E, Aukštis: 37 m

Dabartinis oras

Ataskaita buvo paskelbta 1 valandą ir 3 minutes, ne 19:00 UTC
Vėjas 3 kt nuo kintamojo kryptimis
Temperatūra 25°C
Drėgmė 94%
Slėgis 1008 hPa
Matomumas 10 km arba daugiau
Mažai debesys ne aukštis 2300 ft

METAR: WMKJ 251900Z VRB03KT 9999 FEW023 25/24 Q1008

Laikas: 04:03 (20:03 UTC)

Prognozė

Ataskaita buvo paskelbta 3 valandos ir 3 minutes, ne 17:00 UTC
Prognozė galioja nuo 25 metu 18 UTC su 26 metu 18 UTC
Vėjas 3 kt nuo kintamojo kryptimis
Matomumas 10 km arba daugiau
Mažai debesys ne aukštis 2200 ft
Laikinai
nuo 26 metu 06 UTC su 26 metu 11 UTC
Matomumas: 4000 m
Mažai debesys ne aukštis 1000 ft
Mažai debesys ne aukštis 1700 ft, Liūtiniai kamuoliniai debesys.
Išsisklaidę debesys ne aukštis 2000 ft
perkūnija, lietus

TAF: WMKJ 251700Z 2518/2618 VRB03KT 9999 FEW022 TEMPO 2606/2611 4000 TSRA FEW010 FEW017CB SCT020

Orai ataskaitas ir orų prognozės (METAR, TAF).

turimą stotys yra geltonos ir raudonos taškus žemėlapyje.

Perkelti pele per norėdami pamatyti stoties vardą.

Tada spustelėkite, norėdami matyti oro stebėjimo ir prognozės.

Norėdami pakeisti žemėlapį: spustelėkite ant žalios mygtukų su juodo kryžiaus žemyn,; žalią mygtuką su brūkšneliu, jei norite nutolinti; arba žalių rodyklių gretimoms žemėlapius.


METAR-TAF: